Time;durP1;ratioP1;P1;durP2;ratioP2;P2;SDS_P1;SDS_P2;PMS_P1;PMS_P2;Temp;Humidity;BMP_temperature;BMP_pressure;BME280_temperature;BME280_humidity;BME280_pressure;Samples;Min_cycle;Max_cycle;Signal;HPM_P1;HPM_P2
2022/12/09 00:01:42;;;;;;;9.40;6.50;;;2.50;99.90;;;3.25;100.00;97150.38;5038857;28;20524;-80
2022/12/09 00:04:11;;;;;;;10.57;6.60;;;2.50;99.90;;;3.25;100.00;97151.19;5042719;28;20527;-80
2022/12/09 00:06:41;;;;;;;9.43;5.67;;;2.50;99.90;;;3.25;100.00;97150.38;5041744;28;20866;-80
2022/12/09 00:09:16;;;;;;;12.97;7.00;;;2.50;99.90;;;3.27;100.00;97151.03;5045546;28;20459;-81
2022/12/09 00:11:51;;;;;;;12.00;6.90;;;2.70;99.90;;;3.26;100.00;97136.50;5045940;28;20588;-81
2022/12/09 00:14:21;;;;;;;11.70;6.70;;;2.60;99.90;;;3.24;100.00;97141.81;5044970;28;20822;-81
2022/12/09 00:16:51;;;;;;;13.77;6.07;;;2.50;99.90;;;3.24;100.00;97141.81;5042248;28;20490;-81
2022/12/09 00:19:21;;;;;;;9.10;5.03;;;2.50;99.90;;;3.24;100.00;97139.25;5044812;28;20477;-80
2022/12/09 00:21:50;;;;;;;9.17;5.67;;;2.50;99.90;;;3.20;100.00;97130.22;5040328;28;20504;-81
2022/12/09 00:24:22;;;;;;;10.83;6.60;;;2.40;99.90;;;3.21;100.00;97131.81;5046109;28;20457;-81
2022/12/09 00:26:51;;;;;;;19.40;6.20;;;2.60;99.90;;;3.21;100.00;97131.81;5046502;28;21003;-80
2022/12/09 00:29:20;;;;;;;14.30;6.87;;;2.60;99.90;;;3.18;100.00;97134.75;5045865;28;21011;-81
2022/12/09 00:31:50;;;;;;;12.80;6.77;;;2.50;99.90;;;3.14;100.00;97133.44;5042171;28;20469;-80
2022/12/09 00:34:20;;;;;;;14.33;6.37;;;2.50;99.90;;;3.16;100.00;97138.47;5043668;28;20471;-80
2022/12/09 00:36:49;;;;;;;8.87;5.27;;;2.40;99.90;;;3.18;100.00;97142.50;5046875;28;20887;-81
2022/12/09 00:39:20;;;;;;;9.50;5.67;;;2.40;99.90;;;3.15;100.00;97144.59;5046846;28;20473;-81
2022/12/09 00:41:50;;;;;;;12.00;6.53;;;2.40;99.90;;;3.17;100.00;97132.31;5045980;28;20489;-81
2022/12/09 00:44:20;;;;;;;14.43;6.40;;;2.40;99.90;;;3.15;100.00;97142.81;5045493;28;20489;-80
2022/12/09 00:46:50;;;;;;;15.73;8.07;;;2.40;99.90;;;3.13;100.00;97136.19;5043792;28;21330;-81
2022/12/09 00:49:19;;;;;;;13.03;6.17;;;2.40;99.90;;;3.11;100.00;97130.38;5047695;28;20467;-81
2022/12/09 00:51:49;;;;;;;11.93;5.97;;;2.40;99.90;;;3.09;100.00;97125.38;5040662;28;20500;-80
2022/12/09 00:54:21;;;;;;;9.40;5.70;;;2.30;99.90;;;3.10;100.00;97132.16;5043883;28;21147;-80
2022/12/09 00:56:51;;;;;;;12.50;6.10;;;2.40;99.90;;;3.04;100.00;97128.47;5045536;28;21253;-81
2022/12/09 00:59:21;;;;;;;13.73;6.40;;;2.30;99.90;;;3.04;100.00;97122.47;5043996;28;20470;-80
2022/12/09 01:01:51;;;;;;;14.20;6.27;;;2.30;99.90;;;3.06;100.00;97125.69;5041595;28;20501;-80
2022/12/09 01:04:23;;;;;;;12.40;5.60;;;2.30;99.90;;;3.07;100.00;97121.34;5043716;28;20468;-81
2022/12/09 01:06:53;;;;;;;8.67;5.63;;;2.30;99.90;;;3.07;100.00;97127.31;5045064;28;20505;-80
2022/12/09 01:09:23;;;;;;;10.50;6.40;;;2.30;99.90;;;3.08;100.00;97120.38;5044273;28;20461;-81
2022/12/09 01:11:54;;;;;;;11.90;5.93;;;2.30;99.90;;;3.08;100.00;97120.38;5045564;28;21022;-81
2022/12/09 01:14:23;;;;;;;12.97;5.43;;;2.30;99.90;;;3.09;100.00;97117.63;5047998;28;20456;-80
2022/12/09 01:16:53;;;;;;;7.93;5.57;;;2.30;99.90;;;3.09;100.00;97119.44;5045090;28;20507;-80
2022/12/09 01:19:23;;;;;;;9.33;6.00;;;2.30;99.90;;;3.09;100.00;97115.03;5044431;28;20830;-81
2022/12/09 01:21:54;;;;;;;12.33;5.30;;;2.30;99.90;;;3.11;100.00;97123.44;5041659;28;20901;-80
2022/12/09 01:24:24;;;;;;;10.80;5.70;;;2.30;99.90;;;3.13;100.00;97126.66;5042063;28;20461;-80
2022/12/09 01:26:53;;;;;;;11.43;6.20;;;2.40;99.90;;;3.11;100.00;97122.63;5043242;28;20461;-81
2022/12/09 01:29:23;;;;;;;11.40;5.10;;;2.40;99.90;;;3.09;100.00;97115.03;5046065;28;20564;-80
2022/12/09 01:31:55;;;;;;;10.43;5.40;;;2.30;99.90;;;3.12;100.00;97116.50;5046485;28;20528;-80
2022/12/09 01:34:24;;;;;;;9.37;5.50;;;2.40;99.90;;;3.12;100.00;97119.09;5046023;28;20478;-80
2022/12/09 01:36:54;;;;;;;14.00;6.93;;;2.40;99.90;;;3.11;100.00;97120.88;5045940;28;20470;-81
2022/12/09 01:39:25;;;;;;;14.80;6.27;;;2.30;99.90;;;3.10;100.00;97119.25;5043611;28;20462;-81
2022/12/09 01:41:55;;;;;;;11.90;6.83;;;2.30;99.90;;;3.10;100.00;97121.00;5040784;28;20500;-80
2022/12/09 01:44:26;;;;;;;11.30;5.80;;;2.30;99.90;;;3.12;100.00;97119.09;5042988;28;21015;-80
2022/12/09 01:46:59;;;;;;;11.97;4.70;;;2.40;99.90;;;3.12;100.00;97113.94;5044110;28;20457;-81
2022/12/09 01:49:34;;;;;;;11.63;5.30;;;2.40;99.90;;;3.08;100.00;97113.44;5045314;28;20986;-81
2022/12/09 01:52:14;;;;;;;8.23;5.53;;;2.40;99.90;;;3.08;100.00;97110.06;5040121;28;20526;-81
2022/12/09 01:54:46;;;;;;;10.23;5.57;;;2.30;99.90;;;2.99;100.00;97101.50;5041564;28;20472;-81
2022/12/09 01:57:16;;;;;;;16.00;5.60;;;2.30;99.90;;;2.98;100.00;97095.56;5043152;28;20951;-81
2022/12/09 01:59:46;;;;;;;7.00;5.00;;;2.20;99.90;;;3.01;100.00;97091.81;5043467;28;20473;-81
2022/12/09 02:02:19;;;;;;;8.53;5.30;;;2.30;99.90;;;3.04;100.00;97086.34;5043296;28;20490;-81
2022/12/09 02:04:50;;;;;;;11.83;5.23;;;2.30;99.90;;;3.03;100.00;97089.88;5044449;28;20941;-80
2022/12/09 02:07:20;;;;;;;10.17;5.87;;;2.30;99.90;;;3.03;100.00;97089.88;5041563;28;20464;-81
2022/12/09 02:09:52;;;;;;;8.77;4.73;;;2.30;99.90;;;3.02;100.00;97081.31;5043198;28;20502;-80
2022/12/09 02:12:33;;;;;;;9.87;4.57;;;2.30;99.90;;;2.99;100.00;97073.09;5043746;28;20815;-81
2022/12/09 02:15:10;;;;;;;6.17;4.90;;;2.30;99.90;;;3.01;100.00;97081.50;5044579;28;20500;-81
2022/12/09 02:17:48;;;;;;;10.63;5.60;;;2.30;99.90;;;3.01;100.00;97078.91;5046845;28;20546;-81
2022/12/09 02:20:29;;;;;;;8.60;5.07;;;2.20;99.90;;;2.99;100.00;97073.09;5044288;28;20461;-81
2022/12/09 02:23:11;;;;;;;11.97;5.67;;;2.20;99.90;;;2.95;100.00;97072.63;5040836;28;20489;-81
2022/12/09 02:25:47;;;;;;;14.10;4.90;;;2.20;99.90;;;2.94;100.00;97070.22;5044258;28;20491;-80
2022/12/09 02:28:56;;;;;;;10.17;4.80;;;2.20;99.90;;;2.95;100.00;97077.00;5043527;28;20465;-81
2022/12/09 02:31:52;;;;;;;13.13;5.53;;;2.20;99.90;;;2.95;100.00;97074.41;5040678;28;20469;-80
2022/12/09 02:34:29;;;;;;;9.87;5.50;;;2.20;99.90;;;2.94;100.00;97075.38;5042693;28;20505;-81
2022/12/09 02:37:10;;;;;;;7.90;5.77;;;2.20;99.90;;;2.93;100.00;97064.25;5046756;28;20498;-81
2022/12/09 02:39:51;;;;;;;8.03;5.13;;;2.20;99.90;;;2.94;100.00;97059.88;5043682;28;21000;-81
2022/12/09 02:42:28;;;;;;;6.97;5.27;;;2.20;99.90;;;2.93;100.00;97058.25;5042286;28;20497;-80
2022/12/09 02:45:02;;;;;;;9.83;4.93;;;2.20;99.90;;;2.92;100.00;97051.47;5043482;28;20548;-81
2022/12/09 02:47:38;;;;;;;10.37;4.77;;;2.30;99.90;;;2.89;100.00;97056.97;5039599;28;20883;-80
2022/12/09 02:50:15;;;;;;;10.20;5.27;;;2.20;99.90;;;2.86;100.00;97057.31;5044154;28;20466;-81
2022/12/09 02:52:48;;;;;;;10.00;5.77;;;2.20;99.90;;;2.87;100.00;97048.59;5043803;28;20472;-81
2022/12/09 02:55:20;;;;;;;9.33;4.40;;;2.10;99.90;;;2.88;100.00;97050.22;5039950;28;20511;-81
2022/12/09 02:57:59;;;;;;;10.07;5.83;;;2.20;99.90;;;2.87;100.00;97052.00;5042081;28;20468;-81
2022/12/09 03:00:30;;;;;;;7.87;5.80;;;2.20;99.90;;;2.86;100.00;97041.81;5039876;28;20519;-81
2022/12/09 03:03:04;;;;;;;7.43;4.87;;;2.20;99.90;;;2.84;100.00;97039.41;5037735;28;20508;-81
2022/12/09 03:05:47;;;;;;;8.07;5.17;;;2.20;99.90;;;2.86;100.00;97032.31;5040812;28;20458;-81
2022/12/09 03:08:31;;;;;;;8.87;5.73;;;2.20;99.90;;;2.87;100.00;97033.13;5043547;28;20469;-81
2022/12/09 03:11:04;;;;;;;9.17;5.00;;;2.20;99.90;;;2.86;100.00;97028.91;5043297;28;20515;-81
2022/12/09 03:13:52;;;;;;;7.30;4.90;;;2.10;99.90;;;2.84;100.00;97023.13;5043871;28;20471;-80
2022/12/09 03:16:33;;;;;;;7.73;4.60;;;2.10;99.90;;;2.84;100.00;97023.13;5041009;28;20461;-82
2022/12/09 03:19:10;;;;;;;10.27;5.13;;;2.10;99.90;;;2.82;100.00;97022.47;5041259;28;21014;-81
2022/12/09 03:21:46;;;;;;;12.50;6.40;;;2.20;99.90;;;2.76;100.00;97015.38;5039419;28;20828;-80
2022/12/09 03:24:22;;;;;;;9.43;4.97;;;2.00;99.90;;;2.72;100.00;97014.09;5042464;28;20469;-80
2022/12/09 03:26:53;;;;;;;12.53;4.93;;;2.10;99.90;;;2.74;100.00;97015.53;5042102;28;21096;-81
2022/12/09 03:29:27;;;;;;;7.97;5.43;;;2.00;99.90;;;2.75;100.00;97016.34;5041607;28;20798;-81
2022/12/09 03:31:59;;;;;;;6.53;4.60;;;2.00;99.90;;;2.75;100.00;97012.00;5044256;28;20911;-81
2022/12/09 03:34:37;;;;;;;9.80;5.57;;;2.00;99.90;;;2.73;100.00;97015.72;5041540;28;20473;-81
2022/12/09 03:37:11;;;;;;;10.30;5.30;;;2.00;99.90;;;2.73;100.00;97013.13;5044105;28;20989;-81
2022/12/09 03:39:42;;;;;;;11.53;5.67;;;2.00;99.90;;;2.73;100.00;97008.78;5046543;28;20512;-80
2022/12/09 03:42:21;;;;;;;7.90;4.90;;;2.00;99.90;;;2.76;100.00;97005.06;5046667;28;20530;-81
2022/12/09 03:44:57;;;;;;;7.33;5.03;;;2.00;99.90;;;2.75;100.00;97009.41;5049415;28;20465;-81
2022/12/09 03:47:28;;;;;;;11.50;5.87;;;2.00;99.90;;;2.75;100.00;97009.41;5048949;28;20457;-81
2022/12/09 03:49:59;;;;;;;7.70;4.70;;;2.00;99.90;;;2.72;100.00;97009.75;5049272;28;20453;-81
2022/12/09 03:52:38;;;;;;;8.00;5.37;;;2.00;99.90;;;2.70;100.00;97005.72;5043992;28;20519;-81
2022/12/09 03:55:18;;;;;;;11.63;5.10;;;2.00;99.90;;;2.71;100.00;97008.13;5046168;28;20468;-81
2022/12/09 03:57:54;;;;;;;10.77;5.10;;;1.90;99.90;;;2.74;100.00;97009.59;5045455;28;20555;-81
2022/12/09 04:00:25;;;;;;;7.53;5.37;;;2.10;99.90;;;2.73;100.00;97010.56;5041524;28;20461;-81
2022/12/09 04:02:55;;;;;;;8.37;5.40;;;2.00;99.90;;;2.72;100.00;97008.94;5044714;28;20589;-81
2022/12/09 04:05:26;;;;;;;9.30;5.37;;;2.00;99.90;;;2.65;100.00;97013.13;5044924;28;20457;-81
2022/12/09 04:07:57;;;;;;;7.63;4.80;;;1.90;99.90;;;2.65;100.00;97015.72;5045042;28;20532;-80
2022/12/09 04:10:27;;;;;;;9.27;5.53;;;1.90;99.90;;;2.69;100.00;97004.09;5044649;28;20511;-81
2022/12/09 04:12:57;;;;;;;10.27;5.23;;;1.90;99.90;;;2.71;100.00;97008.13;5040055;28;20552;-81
2022/12/09 04:15:26;;;;;;;11.73;6.30;;;2.00;99.90;;;2.72;100.00;97006.34;5042750;28;20472;-82
2022/12/09 04:17:56;;;;;;;9.73;5.10;;;2.00;99.90;;;2.71;100.00;97007.34;5042077;28;20468;-82
2022/12/09 04:20:26;;;;;;;10.23;5.50;;;2.00;99.90;;;2.70;100.00;97006.53;5044285;28;20461;-82
2022/12/09 04:22:58;;;;;;;9.63;5.90;;;1.90;99.90;;;2.67;100.00;97003.47;5044884;28;20496;-82
2022/12/09 04:25:28;;;;;;;7.30;5.10;;;2.00;99.90;;;2.71;100.00;97007.34;5042373;28;20469;-81
2022/12/09 04:27:59;;;;;;;7.50;5.30;;;2.00;99.90;;;2.74;100.00;97007.00;5047078;28;20469;-81
2022/12/09 04:30:28;;;;;;;8.63;5.47;;;2.10;99.90;;;2.77;100.00;97001.50;5047845;28;20480;-81
2022/12/09 04:32:59;;;;;;;6.70;4.93;;;2.10;99.90;;;2.76;100.00;96997.31;5045971;28;20971;-82
2022/12/09 04:35:30;;;;;;;10.60;5.70;;;2.00;99.90;;;2.73;100.00;97001.03;5045720;28;20461;-82
2022/12/09 04:38:01;;;;;;;10.73;5.77;;;2.00;99.90;;;2.72;100.00;96993.44;5043496;28;20473;-83
2022/12/09 04:40:31;;;;;;;6.50;5.00;;;2.00;99.90;;;2.70;100.00;96996.22;5046390;28;21014;-81
2022/12/09 04:43:01;;;;;;;8.23;5.27;;;2.00;99.90;;;2.69;100.00;97002.34;5043204;28;20493;-81
2022/12/09 04:45:31;;;;;;;10.23;6.00;;;2.00;99.90;;;2.66;100.00;97001.84;5044376;28;20474;-82
2022/12/09 04:48:01;;;;;;;8.60;5.00;;;1.90;99.90;;;2.66;100.00;96999.28;5042562;28;20564;-81
2022/12/09 04:50:31;;;;;;;7.30;5.13;;;2.00;99.90;;;2.68;100.00;96994.75;5043175;28;20580;-81
2022/12/09 04:53:02;;;;;;;8.70;5.67;;;2.00;99.90;;;2.69;100.00;96993.78;5044597;28;20472;-81
2022/12/09 04:55:33;;;;;;;8.83;5.40;;;1.90;99.90;;;2.67;100.00;96986.22;5046934;28;20476;-81
2022/12/09 04:58:02;;;;;;;12.50;5.93;;;2.10;99.90;;;2.62;100.00;96987.66;5045313;28;20468;-81
2022/12/09 05:00:32;;;;;;;7.93;4.90;;;1.90;99.90;;;2.58;100.00;96982.03;5044930;28;20488;-82
2022/12/09 05:03:02;;;;;;;10.80;4.73;;;1.90;99.90;;;2.61;100.00;96986.03;5044891;28;20534;-81
2022/12/09 05:05:32;;;;;;;9.23;5.57;;;1.90;99.90;;;2.65;100.00;96987.31;5044598;28;20828;-82
2022/12/09 05:08:04;;;;;;;8.67;4.70;;;1.90;99.90;;;2.67;100.00;96980.25;5046148;28;20676;-82
2022/12/09 05:10:33;;;;;;;7.80;5.40;;;1.90;99.90;;;2.69;100.00;96983.44;5046825;28;20453;-81
2022/12/09 05:13:02;;;;;;;14.53;5.53;;;1.90;99.90;;;2.70;100.00;96974.75;5046668;28;20485;-83
2022/12/09 05:15:32;;;;;;;9.07;5.07;;;1.90;99.90;;;2.69;100.00;96967.97;5045688;28;20467;-83
2022/12/09 05:18:02;;;;;;;14.03;5.10;;;1.90;99.90;;;2.71;100.00;96966.81;5042396;28;20497;-81
2022/12/09 05:20:34;;;;;;;8.17;5.40;;;1.90;99.90;;;2.71;100.00;96966.81;5042742;28;20465;-82
2022/12/09 05:23:05;;;;;;;17.10;9.63;;;2.00;99.90;;;2.72;100.00;96967.63;5044894;28;20495;-83
2022/12/09 05:25:38;;;;;;;9.47;5.00;;;2.00;99.90;;;2.70;100.00;96965.25;5045091;28;20492;-82
2022/12/09 05:28:07;;;;;;;12.37;5.90;;;2.00;99.90;;;2.69;100.00;96962.81;5044623;28;20559;-81
2022/12/09 05:30:38;;;;;;;9.00;5.30;;;2.00;99.90;;;2.72;100.00;96959.91;5043231;28;20496;-82
2022/12/09 05:33:08;;;;;;;9.37;5.37;;;2.10;99.90;;;2.71;100.00;96961.66;5040794;28;20496;-82
2022/12/09 05:35:39;;;;;;;7.70;5.10;;;2.10;99.90;;;2.69;100.00;96957.66;5042417;28;20722;-82
2022/12/09 05:38:22;;;;;;;13.37;5.77;;;2.00;99.90;;;2.65;100.00;96958.94;5034696;28;20457;-81
2022/12/09 05:40:52;;;;;;;7.77;4.43;;;1.90;99.90;;;2.67;100.00;96957.84;5031380;28;20812;-82
2022/12/09 05:43:23;;;;;;;7.43;5.27;;;2.00;99.90;;;2.67;100.00;96957.03;5033652;28;20504;-82
2022/12/09 05:45:52;;;;;;;11.37;5.40;;;1.90;99.90;;;2.68;100.00;96953.44;5037650;28;21097;-83
2022/12/09 05:48:22;;;;;;;9.87;5.90;;;1.90;99.90;;;2.63;100.00;96953.16;5046488;28;20823;-83
2022/12/09 05:50:57;;;;;;;10.33;5.93;;;1.90;99.90;;;2.63;100.00;96956.53;5047923;28;20523;-83
2022/12/09 05:53:28;;;;;;;11.10;6.40;;;1.80;99.90;;;2.59;100.00;96946.72;5046929;28;20457;-83
2022/12/09 05:55:59;;;;;;;7.47;4.37;;;1.80;99.90;;;2.56;100.00;96952.19;5046531;28;20487;-83
2022/12/09 05:58:28;;;;;;;7.40;5.53;;;1.80;99.90;;;2.52;100.00;96952.53;5048596;28;20458;-83
2022/12/09 06:01:04;;;;;;;14.30;6.03;;;1.70;99.90;;;2.54;100.00;96949.78;5047096;28;20463;-83
2022/12/09 06:03:34;;;;;;;6.83;4.63;;;1.70;99.90;;;2.59;100.00;96946.72;5046908;28;20499;-83
2022/12/09 06:06:09;;;;;;;8.23;5.17;;;1.80;99.90;;;2.59;100.00;96949.28;5047097;28;20539;-83
2022/12/09 06:08:43;;;;;;;11.70;5.40;;;1.80;99.90;;;2.58;100.00;96955.41;5047714;28;20469;-82
2022/12/09 06:11:16;;;;;;;7.60;4.97;;;1.80;99.90;;;2.52;100.00;96957.69;5047340;28;20943;-83
2022/12/09 06:13:46;;;;;;;10.20;5.70;;;1.80;99.90;;;2.52;100.00;96949.94;5044839;28;20552;-84
2022/12/09 06:16:19;;;;;;;6.60;5.17;;;1.80;99.90;;;2.51;100.00;96958.66;5047177;28;20472;-83
2022/12/09 06:18:49;;;;;;;7.33;4.50;;;1.80;99.90;;;2.51;100.00;96955.25;5044538;28;20471;-84
2022/12/09 06:21:21;;;;;;;7.97;4.70;;;1.80;99.90;;;2.54;100.00;96953.16;5043241;28;20472;-84
2022/12/09 06:23:51;;;;;;;9.00;5.23;;;1.80;99.90;;;2.57;100.00;96953.81;5042458;28;20484;-84
2022/12/09 06:26:24;;;;;;;6.23;4.50;;;1.80;99.90;;;2.54;100.00;96955.75;5046370;28;20461;-83
2022/12/09 06:28:55;;;;;;;7.30;4.83;;;1.80;99.90;;;2.49;100.00;96952.88;5044101;28;21073;-83
2022/12/09 06:31:24;;;;;;;10.13;5.60;;;1.70;99.90;;;2.50;100.00;96953.63;5043536;28;20492;-83
2022/12/09 06:33:54;;;;;;;10.70;5.13;;;1.80;99.90;;;2.53;100.00;96958.50;5046091;28;20488;-83
2022/12/09 06:36:28;;;;;;;8.87;4.77;;;1.80;99.90;;;2.50;100.00;96959.63;5044739;28;20479;-83
2022/12/09 06:39:03;;;;;;;11.43;5.70;;;1.80;99.90;;;2.47;100.00;96953.97;5042490;28;20470;-83
2022/12/09 06:41:41;;;;;;;10.33;5.07;;;1.70;99.90;;;2.47;100.00;96954.78;5040997;28;20468;-83
2022/12/09 06:44:12;;;;;;;7.80;4.87;;;1.70;99.90;;;2.49;100.00;96952.06;5042767;28;20503;-82
2022/12/09 06:46:52;;;;;;;10.80;5.70;;;1.70;99.90;;;2.47;100.00;96954.78;5041940;28;20473;-83
2022/12/09 06:49:23;;;;;;;8.67;4.83;;;1.70;99.90;;;2.50;100.00;96957.03;5041399;28;20456;-83
2022/12/09 06:51:53;;;;;;;8.90;6.30;;;1.70;99.90;;;2.50;100.00;96956.22;5041183;28;20471;-83
2022/12/09 06:54:23;;;;;;;10.33;5.97;;;1.70;99.90;;;2.48;100.00;96963.34;5041261;28;20467;-83
2022/12/09 06:56:53;;;;;;;8.60;5.77;;;1.70;99.90;;;2.52;100.00;96957.69;5041953;28;20462;-83
2022/12/09 06:59:24;;;;;;;9.60;6.37;;;1.80;99.90;;;2.57;100.00;96964.13;5041488;28;20471;-83
2022/12/09 07:01:55;;;;;;;15.80;5.60;;;1.80;99.90;;;2.54;100.00;96955.75;5041727;28;20508;-83
2022/12/09 07:04:25;;;;;;;11.87;6.23;;;1.70;99.90;;;2.56;100.00;96958.16;5042159;28;20501;-83
2022/12/09 07:06:56;;;;;;;7.40;5.03;;;1.80;99.90;;;2.58;100.00;96956.22;5041206;28;20513;-82
2022/12/09 07:09:28;;;;;;;18.43;5.90;;;1.80;99.90;;;2.57;100.00;96959.75;5040508;28;20461;-82
2022/12/09 07:11:59;;;;;;;7.00;5.23;;;1.80;99.90;;;2.59;100.00;96962.19;5040980;28;20505;-83
2022/12/09 07:14:30;;;;;;;10.97;5.60;;;1.80;99.90;;;2.58;100.00;96963.16;5042462;28;21435;-83
2022/12/09 07:17:01;;;;;;;10.93;5.90;;;1.80;99.90;;;2.56;100.00;96957.34;5044129;28;20465;-82
2022/12/09 07:19:31;;;;;;;10.13;6.10;;;1.80;99.90;;;2.56;100.00;96952.19;5046504;28;20462;-83
2022/12/09 07:22:01;;;;;;;10.37;6.13;;;1.80;99.90;;;2.62;100.00;96957.50;5044410;28;20564;-83
2022/12/09 07:24:32;;;;;;;11.30;6.03;;;1.80;99.90;;;2.66;100.00;96952.81;5045613;28;20926;-83
2022/12/09 07:27:04;;;;;;;12.07;7.10;;;2.00;99.90;;;2.68;100.00;96950.88;5045549;28;21039;-83
2022/12/09 07:29:40;;;;;;;11.40;6.93;;;2.00;99.90;;;2.65;100.00;96952.00;5046700;28;20545;-83
2022/12/09 07:32:11;;;;;;;8.60;5.77;;;1.90;99.90;;;2.67;100.00;96949.28;5047425;28;20487;-83
2022/12/09 07:34:41;;;;;;;13.13;7.00;;;2.00;99.90;;;2.69;100.00;96950.72;5046107;28;20449;-83
2022/12/09 07:37:12;;;;;;;11.53;6.97;;;2.00;99.90;;;2.69;100.00;96952.50;5046397;28;20476;-83
2022/12/09 07:39:43;;;;;;;14.83;6.70;;;2.00;99.90;;;2.71;100.00;96950.56;5045440;28;20454;-83
2022/12/09 07:42:12;;;;;;;12.20;7.30;;;2.00;99.90;;;2.72;100.00;96949.56;5046440;28;20476;-83
2022/12/09 07:44:43;;;;;;;15.40;6.07;;;2.10;99.90;;;2.72;100.00;96945.22;5048114;28;20496;-83
2022/12/09 07:47:13;;;;;;;9.77;5.90;;;2.00;99.90;;;2.73;100.00;96948.63;5045282;28;20471;-83
2022/12/09 07:49:45;;;;;;;16.73;7.00;;;2.10;99.90;;;2.71;100.00;96950.56;5046855;28;20555;-84
2022/12/09 07:52:16;;;;;;;11.93;6.20;;;2.10;99.90;;;2.72;100.00;96942.63;5044944;28;20474;-83
2022/12/09 07:54:48;;;;;;;11.50;5.97;;;2.20;99.90;;;2.71;100.00;96945.41;5045456;28;20477;-82
2022/12/09 07:57:18;;;;;;;8.87;6.60;;;2.10;99.90;;;2.70;100.00;96936.84;5045276;28;20479;-83
2022/12/09 07:59:48;;;;;;;10.50;6.07;;;2.10;99.90;;;2.70;100.00;96939.44;5045576;28;20836;-83
2022/12/09 08:02:19;;;;;;;12.27;6.83;;;2.00;99.90;;;2.71;100.00;96941.03;5042708;28;20535;-83
2022/12/09 08:04:49;;;;;;;12.63;6.63;;;2.00;99.90;;;2.71;100.00;96946.19;5043659;28;20494;-83
2022/12/09 08:07:18;;;;;;;11.20;6.50;;;2.00;99.90;;;2.73;100.00;96952.00;5043544;28;20479;-83
2022/12/09 08:09:53;;;;;;;10.47;6.70;;;2.10;99.90;;;2.73;100.00;96946.03;5045728;28;20596;-83
2022/12/09 08:12:23;;;;;;;12.03;6.40;;;2.00;99.90;;;2.68;100.00;96935.38;5044567;28;20476;-83
2022/12/09 08:14:54;;;;;;;10.50;5.50;;;2.00;99.90;;;2.66;100.00;96947.66;5045035;28;20548;-83
2022/12/09 08:17:25;;;;;;;10.80;6.47;;;1.90;99.90;;;2.67;100.00;96944.13;5045097;28;20966;-83
2022/12/09 08:19:56;;;;;;;10.63;6.03;;;2.00;99.90;;;2.64;100.00;96936.72;5048979;28;21419;-83
2022/12/09 08:22:25;;;;;;;12.80;6.40;;;1.90;99.90;;;2.66;100.00;96942.50;5049931;28;20478;-83
2022/12/09 08:24:55;;;;;;;10.60;5.87;;;1.90;99.90;;;2.64;100.00;96944.44;5048884;28;20497;-83
2022/12/09 08:27:25;;;;;;;15.10;7.07;;;2.00;99.90;;;2.65;100.00;96941.69;5048799;28;20542;-82
2022/12/09 08:29:55;;;;;;;12.83;6.63;;;2.00;99.90;;;2.67;100.00;96939.78;5048161;28;20492;-83
2022/12/09 08:32:25;;;;;;;14.23;8.00;;;2.00;99.90;;;2.69;100.00;96942.16;5048095;28;20468;-83
2022/12/09 08:34:56;;;;;;;12.00;7.13;;;2.10;99.90;;;2.70;100.00;96938.63;5050226;28;20465;-83
2022/12/09 08:37:26;;;;;;;14.53;7.53;;;2.10;99.90;;;2.76;100.00;96935.38;5049056;28;20544;-83
2022/12/09 08:39:57;;;;;;;11.60;6.93;;;2.20;99.90;;;2.76;100.00;96918.13;5050533;28;20569;-84
2022/12/09 08:42:30;;;;;;;12.30;8.40;;;2.30;99.90;;;2.78;100.00;96921.31;5049801;28;20501;-84
2022/12/09 08:44:59;;;;;;;10.13;6.80;;;2.30;99.90;;;2.81;100.00;96930.53;5047716;28;20566;-84
2022/12/09 08:47:32;;;;;;;11.10;7.80;;;2.20;99.90;;;2.83;100.00;96926.81;5049290;28;20523;-84
2022/12/09 08:50:02;;;;;;;11.07;7.07;;;2.40;99.90;;;2.84;100.00;96930.19;5049499;28;20552;-83
2022/12/09 08:52:32;;;;;;;12.57;7.90;;;2.40;99.90;;;2.83;100.00;96923.41;5048088;28;20584;-83
2022/12/09 08:55:10;;;;;;;12.87;7.43;;;2.20;99.90;;;2.87;100.00;96935.03;5050361;28;20842;-82
2022/12/09 08:57:39;;;;;;;11.17;7.07;;;2.40;99.90;;;2.90;100.00;96934.69;5047727;28;20475;-84
2022/12/09 09:00:14;;;;;;;11.20;7.63;;;2.40;99.90;;;2.91;100.00;96926.78;5048195;28;20490;-83
2022/12/09 09:02:43;;;;;;;12.00;7.20;;;2.40;99.90;;;2.94;100.00;96929.03;5049436;28;20483;-83
2022/12/09 09:05:14;;;;;;;11.57;6.57;;;2.40;99.90;;;2.94;100.00;96925.66;5048128;28;21013;-83
2022/12/09 09:07:44;;;;;;;12.67;7.70;;;2.40;99.90;;;2.96;100.00;96923.69;5048251;28;20979;-83
2022/12/09 09:10:16;;;;;;;12.93;7.37;;;2.50;99.90;;;2.95;100.00;96927.25;5045428;28;20464;-82
2022/12/09 09:12:47;;;;;;;12.50;7.50;;;2.50;99.90;;;2.99;100.00;96923.34;5046340;28;20549;-83
2022/12/09 09:15:17;;;;;;;14.60;7.60;;;2.50;99.90;;;3.00;100.00;96912.06;5046937;28;20519;-83
2022/12/09 09:17:47;;;;;;;11.03;7.53;;;2.60;99.90;;;3.01;100.00;96917.06;5044145;28;20473;-83
2022/12/09 09:20:20;;;;;;;12.70;8.17;;;2.60;99.90;;;3.00;100.00;96919.81;5043316;28;20466;-83
2022/12/09 09:22:51;;;;;;;11.60;7.17;;;2.60;99.90;;;2.98;100.00;96924.34;5043514;28;20474;-83
2022/12/09 09:25:30;;;;;;;11.80;6.57;;;2.60;99.90;;;3.00;100.00;96924.97;5044824;28;20497;-84
2022/12/09 09:28:00;;;;;;;10.83;7.03;;;2.60;99.90;;;3.03;100.00;96919.47;5045603;28;20849;-83
2022/12/09 09:30:30;;;;;;;10.60;6.47;;;2.60;99.90;;;3.03;100.00;96914.31;5041874;28;20465;-83
2022/12/09 09:33:00;;;;;;;10.80;7.50;;;2.50;99.90;;;3.06;100.00;96924.28;5046883;28;20463;-83
2022/12/09 09:35:31;;;;;;;10.07;6.23;;;2.60;99.90;;;3.07;100.00;96928.50;5049090;28;20476;-83
2022/12/09 09:38:02;;;;;;;15.40;6.50;;;2.70;99.90;;;3.06;100.00;96921.72;5045938;28;20470;-83
2022/12/09 09:40:34;;;;;;;10.77;6.60;;;2.70;99.90;;;3.07;100.00;96930.25;5048908;28;20553;-83
2022/12/09 09:43:04;;;;;;;18.80;7.30;;;2.70;99.90;;;3.06;100.00;96929.44;5049327;28;20468;-83
2022/12/09 09:45:34;;;;;;;13.27;7.03;;;2.70;99.90;;;3.04;100.00;96927.06;5050236;28;20488;-83
2022/12/09 09:48:05;;;;;;;8.77;6.70;;;2.70;99.90;;;3.07;100.00;96928.50;5048836;28;20502;-83
2022/12/09 09:50:48;;;;;;;12.07;7.27;;;2.70;99.90;;;3.08;100.00;96930.13;5048170;28;20472;-84
2022/12/09 09:53:24;;;;;;;11.20;6.47;;;2.70;99.90;;;3.06;100.00;96929.44;5049850;28;20482;-84
2022/12/09 09:56:00;;;;;;;14.60;6.60;;;2.70;99.90;;;3.08;100.00;96927.53;5047266;28;20468;-83
2022/12/09 09:58:41;;;;;;;11.63;6.20;;;2.60;99.90;;;3.08;100.00;96922.38;5047933;28;20540;-83
2022/12/09 10:01:14;;;;;;;8.23;6.00;;;2.60;99.90;;;3.10;100.00;96915.25;5049544;28;20818;-83
2022/12/09 10:03:58;;;;;;;11.30;6.13;;;2.60;99.90;;;3.12;100.00;96920.25;5049778;28;20470;-84
2022/12/09 10:06:40;;;;;;;8.60;6.40;;;2.60;99.90;;;3.13;100.00;96924.41;5048806;28;20499;-83
2022/12/09 10:09:21;;;;;;;13.30;6.90;;;2.60;99.90;;;3.15;100.00;96920.72;5046964;28;20832;-83
2022/12/09 10:12:02;;;;;;;9.07;5.97;;;2.60;99.90;;;3.12;100.00;96918.47;5046850;28;20505;-83
2022/12/09 10:14:48;;;;;;;9.10;5.87;;;2.70;99.90;;;3.06;100.00;96919.13;5048235;28;20462;-83
2022/12/09 10:17:28;;;;;;;10.43;6.63;;;2.60;99.90;;;3.06;100.00;96919.13;5046743;28;20481;-83
2022/12/09 10:20:06;;;;;;;9.03;6.63;;;2.70;99.90;;;3.04;100.00;96915.91;5044033;28;20520;-83
2022/12/09 10:22:46;;;;;;;9.03;5.77;;;2.60;99.90;;;3.06;100.00;96921.72;5049316;28;20492;-82
2022/12/09 10:25:23;;;;;;;12.43;6.70;;;2.50;99.90;;;3.06;100.00;96913.97;5044275;28;20481;-83
2022/12/09 10:28:04;;;;;;;7.40;5.77;;;2.60;99.90;;;3.08;100.00;96919.78;5045973;28;20470;-83
2022/12/09 10:30:35;;;;;;;11.27;6.67;;;2.60;99.90;;;3.07;100.00;96914.78;5045811;28;20472;-83
2022/12/09 10:33:14;;;;;;;8.10;5.70;;;2.70;99.90;;;3.07;100.00;96920.75;5042515;28;20461;-83
2022/12/09 10:35:45;;;;;;;10.13;6.47;;;2.70;99.90;;;3.08;100.00;96917.19;5044674;28;20472;-83
2022/12/09 10:38:17;;;;;;;17.07;6.80;;;2.70;99.90;;;3.09;100.00;96916.22;5042572;28;20556;-83
2022/12/09 10:41:07;;;;;;;10.27;5.93;;;2.60;99.90;;;3.10;100.00;96909.28;5042254;28;21343;-84
2022/12/09 10:43:40;;;;;;;15.37;7.80;;;2.70;99.90;;;3.09;100.00;96911.03;5042778;28;20983;-83
2022/12/09 10:46:20;;;;;;;11.73;6.70;;;2.70;99.90;;;3.06;100.00;96906.22;5044818;28;20991;-83